createdAt,value
2023-02-24T00:01:44.462Z,66.54
2023-02-24T00:10:21.623Z,66.66
2023-02-24T00:14:26.757Z,66.89
2023-02-24T00:18:29.769Z,67.04
2023-02-24T00:22:32.998Z,67.11
2023-02-24T00:26:37.323Z,67.02
2023-02-24T00:30:40.602Z,67.21
2023-02-24T00:34:44.060Z,66.99
2023-02-24T00:38:47.688Z,66.64
2023-02-24T00:42:54.336Z,66.94
2023-02-24T00:46:58.214Z,67.15
2023-02-24T00:51:02.350Z,67.51
2023-02-24T00:55:15.488Z,67.73
2023-02-24T00:59:20.824Z,68.38
2023-02-24T01:03:26.178Z,68.61
2023-02-24T01:07:29.870Z,68.72
2023-02-24T01:12:04.180Z,68.70
2023-02-24T01:16:09.285Z,69.04
2023-02-24T01:20:18.347Z,69.26
2023-02-24T01:24:22.433Z,69.02
2023-02-24T01:28:25.559Z,69.18
2023-02-24T01:32:32.356Z,69.03
2023-02-24T01:36:35.656Z,69.22
2023-02-24T01:40:38.826Z,69.80
2023-02-24T01:45:17.114Z,68.89
2023-02-24T01:49:27.536Z,70.38
2023-02-24T01:53:32.977Z,70.33
2023-02-24T01:57:39.938Z,69.76
2023-02-24T02:01:46.320Z,69.93
2023-02-24T02:05:52.733Z,69.73
2023-02-24T02:09:56.774Z,69.42
2023-02-24T02:14:01.946Z,69.02
2023-02-24T02:18:13.699Z,68.91
2023-02-24T02:22:46.149Z,68.36
2023-02-24T02:27:21.258Z,68.19
2023-02-24T02:31:56.015Z,68.22
2023-02-24T02:36:08.646Z,68.46
2023-02-24T02:40:20.161Z,68.43
2023-02-24T02:44:34.059Z,68.49
2023-02-24T02:48:41.636Z,68.23
2023-02-24T02:52:56.156Z,68.07
2023-02-24T02:57:06.802Z,67.65
2023-02-24T03:01:12.701Z,67.89
2023-02-24T03:09:30.296Z,68.05
2023-02-24T03:13:41.824Z,68.04
2023-02-24T03:17:47.545Z,67.81
2023-02-24T03:22:00.233Z,67.82
2023-02-24T03:26:17.780Z,67.63
2023-02-24T03:30:26.977Z,67.55
2023-02-24T03:34:41.110Z,67.83
2023-02-24T03:38:49.530Z,67.45
2023-02-24T03:43:05.932Z,67.17
2023-02-24T03:47:10.399Z,66.83
2023-02-24T03:51:18.230Z,66.89
2023-02-24T03:55:33.328Z,66.96
2023-02-24T04:00:30.069Z,66.82
2023-02-24T04:04:40.112Z,66.91
2023-02-24T04:08:51.748Z,66.99
2023-02-24T04:13:02.287Z,66.92
2023-02-24T04:17:14.157Z,66.94
2023-02-24T04:21:19.074Z,67.22
2023-02-24T04:25:26.021Z,67.11
2023-02-24T04:29:35.867Z,66.96
2023-02-24T04:33:41.023Z,67.01
2023-02-24T04:37:45.333Z,67.53
2023-02-24T04:41:50.726Z,68.29
2023-02-24T04:45:53.708Z,69.27
2023-02-24T04:49:58.580Z,69.27
2023-02-24T04:54:02.176Z,69.55
2023-02-24T04:58:05.415Z,69.68
2023-02-24T05:02:08.837Z,69.79
2023-02-24T05:06:17.806Z,69.86
2023-02-24T05:10:21.676Z,70.71
2023-02-24T05:14:25.058Z,71.16
2023-02-24T05:18:32.283Z,71.43
2023-02-24T05:22:36.763Z,71.26
2023-02-24T05:26:42.222Z,70.55
2023-02-24T05:30:45.146Z,70.52
2023-02-24T05:34:48.761Z,70.50
2023-02-24T05:38:57.998Z,70.64
2023-02-24T05:43:04.804Z,70.78
2023-02-24T05:47:07.729Z,70.53
2023-02-24T05:51:13.182Z,69.97
2023-02-24T05:55:18.013Z,69.81
2023-02-24T05:59:21.695Z,69.21
2023-02-24T06:03:31.528Z,68.82
2023-02-24T06:07:34.938Z,68.93
2023-02-24T06:11:41.397Z,68.69
2023-02-24T06:15:50.873Z,68.68
2023-02-24T06:19:54.583Z,68.53
2023-02-24T06:23:59.282Z,68.98
2023-02-24T06:28:03.557Z,68.95
2023-02-24T06:32:09.118Z,68.84
2023-02-24T06:36:14.368Z,68.44
2023-02-24T06:40:18.328Z,68.35
2023-02-24T06:44:24.406Z,68.11
2023-02-24T06:48:28.710Z,67.92
2023-02-24T06:52:32.529Z,67.85
2023-02-24T06:56:38.913Z,68.04
2023-02-24T07:00:46.970Z,67.81
2023-02-24T07:04:49.847Z,66.88
2023-02-24T07:08:54.075Z,66.44
2023-02-24T07:12:57.437Z,66.15
2023-02-24T07:17:01.766Z,66.21
2023-02-24T07:21:42.282Z,66.85
2023-02-24T07:25:46.510Z,66.38
2023-02-24T07:29:52.930Z,65.43
2023-02-24T07:33:58.206Z,64.38
2023-02-24T07:38:05.594Z,63.98
2023-02-24T07:42:12.967Z,63.45
2023-02-24T07:46:19.711Z,63.39
2023-02-24T07:50:24.165Z,63.05
2023-02-24T07:54:30.644Z,62.19
2023-02-24T07:58:34.934Z,59.72
2023-02-24T08:02:39.366Z,58.91
2023-02-24T08:06:47.957Z,59.50
2023-02-24T08:10:53.765Z,58.21
2023-02-24T08:15:00.341Z,58.12
2023-02-24T08:19:04.057Z,58.15
2023-02-24T08:23:10.944Z,58.23
2023-02-24T08:27:14.463Z,56.31
2023-02-24T08:31:18.863Z,55.90
2023-02-24T08:35:23.739Z,55.15
2023-02-24T08:39:30.272Z,56.03
2023-02-24T08:43:40.343Z,55.05
2023-02-24T08:47:45.957Z,51.10
2023-02-24T08:51:52.998Z,49.12
2023-02-24T08:55:57.921Z,49.76
2023-02-24T09:00:00.772Z,49.29
2023-02-24T09:04:07.540Z,50.51
2023-02-24T09:08:10.492Z,50.95
2023-02-24T09:12:22.398Z,51.36
2023-02-24T09:16:26.781Z,51.68
2023-02-24T09:20:52.977Z,52.92
2023-02-24T09:25:16.243Z,51.99
2023-02-24T09:33:51.866Z,51.06
2023-02-24T09:37:57.029Z,51.58
2023-02-24T09:42:25.123Z,51.28
2023-02-24T09:46:28.238Z,50.55
2023-02-24T09:51:02.188Z,51.54
2023-02-24T09:55:25.283Z,51.80
2023-02-24T09:59:34.951Z,51.65
2023-02-24T10:03:48.328Z,53.16
2023-02-24T10:07:57.629Z,53.16
2023-02-24T10:12:05.996Z,52.87
2023-02-24T10:16:16.072Z,52.11
2023-02-24T10:20:31.479Z,51.85
2023-02-24T10:24:47.697Z,52.82
2023-02-24T10:28:58.800Z,52.74
2023-02-24T10:33:07.715Z,51.52
2023-02-24T10:37:27.685Z,51.86
2023-02-24T10:41:46.190Z,52.26
2023-02-24T10:45:49.605Z,50.67
2023-02-24T10:49:58.235Z,51.11
2023-02-24T10:54:34.686Z,51.62
2023-02-24T10:58:45.633Z,51.79
2023-02-24T11:03:07.261Z,50.87
2023-02-24T11:07:24.983Z,50.59
2023-02-24T11:11:58.473Z,51.56
2023-02-24T11:16:20.875Z,50.68
2023-02-24T11:20:46.443Z,51.52
2023-02-24T11:24:53.228Z,50.82
2023-02-24T11:29:13.737Z,51.68
2023-02-24T11:33:31.486Z,51.45
2023-02-24T11:37:42.847Z,50.72
2023-02-24T11:41:51.042Z,51.12
2023-02-24T11:46:01.433Z,50.83
2023-02-24T11:50:19.322Z,50.32
2023-02-24T11:54:24.121Z,50.18
2023-02-24T11:58:33.179Z,49.85
2023-02-24T12:02:47.205Z,50.49
2023-02-24T12:06:59.418Z,50.36
2023-02-24T12:11:07.276Z,50.78
2023-02-24T12:15:19.283Z,50.96
2023-02-24T12:19:30.779Z,51.65
2023-02-24T12:23:37.559Z,52.94
2023-02-24T12:27:53.141Z,53.50
2023-02-24T12:32:05.759Z,53.77
2023-02-24T12:36:22.182Z,54.25
2023-02-24T12:40:39.148Z,54.11
2023-02-24T12:44:51.688Z,54.49
2023-02-24T12:49:23.473Z,54.56
2023-02-24T12:53:34.407Z,54.20
2023-02-24T12:57:46.502Z,53.95
2023-02-24T13:02:01.602Z,54.51
2023-02-24T13:06:14.356Z,54.64
2023-02-24T13:10:31.661Z,55.06
2023-02-24T13:14:39.070Z,54.74
2023-02-24T13:18:43.422Z,54.90
2023-02-24T13:22:48.566Z,54.57
2023-02-24T13:26:52.097Z,55.33
2023-02-24T13:31:05.405Z,55.87
2023-02-24T13:35:33.504Z,55.62
2023-02-24T13:39:41.515Z,54.11
2023-02-24T13:43:55.639Z,55.03
2023-02-24T13:48:19.780Z,55.20
2023-02-24T13:52:37.225Z,55.23
2023-02-24T13:56:46.035Z,53.46
2023-02-24T14:01:04.426Z,53.57
2023-02-24T14:05:18.051Z,53.99
2023-02-24T14:09:27.193Z,53.54
2023-02-24T14:13:34.445Z,53.14
2023-02-24T14:17:39.212Z,51.05
2023-02-24T14:21:51.691Z,51.89
2023-02-24T14:25:57.339Z,50.75
2023-02-24T14:30:00.940Z,51.53
2023-02-24T14:34:09.141Z,52.09
2023-02-24T14:38:44.986Z,50.65
2023-02-24T14:42:49.696Z,51.20
2023-02-24T14:46:55.097Z,51.58
2023-02-24T14:51:03.446Z,51.40
2023-02-24T14:55:13.968Z,51.22
2023-02-24T14:59:30.736Z,52.53
2023-02-24T15:03:38.159Z,51.94
2023-02-24T15:07:44.873Z,51.59
2023-02-24T15:11:54.386Z,52.07
2023-02-24T15:15:58.223Z,51.45
2023-02-24T15:20:01.400Z,51.65
2023-02-24T15:24:06.679Z,52.47
2023-02-24T15:28:26.798Z,52.85
2023-02-24T15:32:44.204Z,52.60
2023-02-24T15:36:51.023Z,52.36
2023-02-24T15:41:04.399Z,53.45
2023-02-24T15:45:26.033Z,53.74
2023-02-24T15:49:38.302Z,54.27
2023-02-24T15:53:42.998Z,55.02
2023-02-24T15:57:47.492Z,55.22
2023-02-24T16:01:51.937Z,55.51
2023-02-24T16:05:57.891Z,56.13
2023-02-24T16:10:04.183Z,56.70
2023-02-24T16:14:07.284Z,56.90
2023-02-24T16:18:21.958Z,57.43
2023-02-24T16:22:27.830Z,58.55
2023-02-24T16:26:34.121Z,59.24
2023-02-24T16:30:37.227Z,59.82
2023-02-24T16:34:42.017Z,60.28
2023-02-24T16:38:51.077Z,60.05
2023-02-24T16:42:53.968Z,61.09
2023-02-24T16:46:57.834Z,60.72
2023-02-24T16:51:00.814Z,61.34
2023-02-24T16:55:06.180Z,61.80
2023-02-24T16:59:09.344Z,62.50
2023-02-24T17:03:19.388Z,62.36
2023-02-24T17:07:22.233Z,62.59
2023-02-24T17:11:27.848Z,59.72
2023-02-24T17:15:31.569Z,62.54
2023-02-24T17:19:34.795Z,63.36
2023-02-24T17:23:38.320Z,64.66
2023-02-24T17:27:44.167Z,64.99
2023-02-24T17:31:47.802Z,64.27
2023-02-24T17:35:51.127Z,65.09
2023-02-24T17:39:54.255Z,65.32
2023-02-24T17:43:58.588Z,65.75
2023-02-24T17:48:02.038Z,66.25
2023-02-24T17:52:06.344Z,65.97
2023-02-24T17:56:10.274Z,65.88
2023-02-24T18:00:16.235Z,66.59
2023-02-24T18:04:19.619Z,66.74
2023-02-24T18:08:23.421Z,66.59
2023-02-24T18:12:26.974Z,67.02
2023-02-24T18:16:31.732Z,67.38
2023-02-24T18:20:34.967Z,67.69
2023-02-24T18:24:42.337Z,68.07
2023-02-24T18:28:45.696Z,69.08
2023-02-24T18:32:51.964Z,69.41
2023-02-24T18:36:56.242Z,69.69
2023-02-24T18:41:00.770Z,70.26
2023-02-24T18:45:03.818Z,70.86
2023-02-24T18:49:09.937Z,71.28
2023-02-24T18:53:12.783Z,70.11
2023-02-24T18:57:15.901Z,69.03
2023-02-24T19:01:21.462Z,69.51
2023-02-24T19:05:37.741Z,69.53
2023-02-24T19:09:42.945Z,69.31
2023-02-24T19:13:47.632Z,69.59
2023-02-24T19:17:50.956Z,69.10
2023-02-24T19:21:55.744Z,68.84
2023-02-24T19:25:59.179Z,68.71
2023-02-24T19:30:02.493Z,69.01
2023-02-24T19:34:07.892Z,69.49
2023-02-24T19:38:14.956Z,69.45
2023-02-24T19:42:18.152Z,70.02
2023-02-24T19:46:21.573Z,70.41
2023-02-24T19:50:25.563Z,70.89
2023-02-24T19:54:30.947Z,70.56
2023-02-24T19:58:34.629Z,70.78
2023-02-24T20:02:38.545Z,71.03
2023-02-24T20:06:44.390Z,71.24
2023-02-24T20:10:48.686Z,71.34
2023-02-24T20:14:52.249Z,71.29
2023-02-24T20:18:56.519Z,70.81
2023-02-24T20:23:03.130Z,70.45
2023-02-24T20:27:08.436Z,70.67
2023-02-24T20:31:13.256Z,70.75
2023-02-24T20:35:16.674Z,70.53
2023-02-24T20:39:19.747Z,70.71
2023-02-24T20:43:24.418Z,70.43
2023-02-24T20:47:27.497Z,70.28
2023-02-24T20:51:31.942Z,70.56
2023-02-24T20:55:35.325Z,70.28
2023-02-24T20:59:49.235Z,70.70
2023-02-24T21:03:59.278Z,70.18
2023-02-24T21:08:02.236Z,70.53
2023-02-24T21:12:07.280Z,70.11
2023-02-24T21:16:13.362Z,70.29
2023-02-24T21:20:16.572Z,69.94
2023-02-24T21:24:19.549Z,70.29
2023-02-24T21:28:23.954Z,70.45
2023-02-24T21:32:29.997Z,70.16
2023-02-24T21:36:32.934Z,70.93
2023-02-24T21:40:37.198Z,71.04
2023-02-24T21:44:43.563Z,71.38
2023-02-24T21:48:48.997Z,69.34
2023-02-24T21:52:52.505Z,68.63
2023-02-24T21:56:55.442Z,68.33
2023-02-24T22:00:59.917Z,68.47
2023-02-24T22:05:04.271Z,68.65
2023-02-24T22:09:11.400Z,69.30
2023-02-24T22:13:14.352Z,69.47
2023-02-24T22:17:18.177Z,69.65
2023-02-24T22:21:24.951Z,70.50
2023-02-24T22:25:27.878Z,70.37
2023-02-24T22:29:31.216Z,70.96
2023-02-24T22:33:36.701Z,71.40
2023-02-24T22:37:41.423Z,71.33
2023-02-24T22:41:44.780Z,71.46
2023-02-24T22:45:58.011Z,71.46
2023-02-24T22:50:01.093Z,72.01
2023-02-24T22:54:06.856Z,71.85
2023-02-24T22:58:10.047Z,71.59
2023-02-24T23:02:13.252Z,71.91
2023-02-24T23:06:18.080Z,71.93
2023-02-24T23:10:22.716Z,71.97
2023-02-24T23:14:26.937Z,71.90
2023-02-24T23:18:30.079Z,71.68
2023-02-24T23:22:32.998Z,71.64
2023-02-24T23:26:41.181Z,71.53
2023-02-24T23:30:46.242Z,71.99
2023-02-24T23:34:49.425Z,72.25
2023-02-24T23:38:53.174Z,72.18
2023-02-24T23:42:57.559Z,71.97
2023-02-24T23:47:01.681Z,71.25
2023-02-24T23:51:06.002Z,71.23
2023-02-24T23:55:11.199Z,70.52
2023-02-24T23:59:16.655Z,71.32
